Aviation Digital Data Service (ADDS)

Output produced by METARs form (1111 UTC 15 July 2020)
found at http://www.aviationweather.gov/metar/data/
 
ESTA 151050Z 30005KT 270V330 9999 SCT051 BKN068 16/12 Q1011
TAF ESTA 150807Z 1509/1512 28005KT 9999 SCT010